Meteo Giornale » Osservazioni meteo Germania » Friedrichshafen

ore: 20:50 - Osservazioni Meteo Friedrichshafen
Lat. 47° 40' N Lon. 9° 31' E Alt. 416 metri s.l.m.

sereno

17 °C

Sereno

Temp. 24 Ore

11 °C

25 °C

Nord

3.7 Km/h

Dew point 13 °C

Umidità 77 %

Visibilità  10 Km

Il sole sorge alle ore 06:40

Il sole tramonta alle ore 20:03

Data e Ora Cielo e Fenomeni T °C DP °C Um. % Pres. hPa Vis. km Vento km/h
Oggi h: 20:50 sereno Sereno 17 13 77 1022 10 N 3.7
Oggi h: 20:20 sereno Sereno 20 13 64 1021 10 N 0
Oggi h: 19:50 sereno Sereno 21 13 60 1021 10 N 1.8
Oggi h: 19:20 sereno Sereno 21 14 64 1021 10 N 1.8
Oggi h: 18:50 poco_nuvoloso Poco Nuvoloso 23 11 46 1021 10 N 5.5
Oggi h: 18:20 poco_nuvoloso Poco Nuvoloso 24 11 43 1021 10 O/SO 7.4
Oggi h: 17:50 poco_nuvoloso Poco Nuvoloso 24 11 43 1021 10 O/SO 7.4
Oggi h: 17:20 poco_nuvoloso Poco Nuvoloso 25 11 41 1021 10 N 5.5
Oggi h: 16:50 sereno Sereno 24 12 47 1021 10 SO 11.1
Oggi h: 16:20 poco_nuvoloso Poco Nuvoloso 25 11 41 1021 10 O 9.3
Oggi h: 15:50 poco_nuvoloso Poco Nuvoloso 24 11 43 1021 10 O/SO 11.1
Oggi h: 15:20 poco_nuvoloso Poco Nuvoloso 24 11 43 1022 10 O/NO 11.1
Oggi h: 14:50 poco_nuvoloso Poco Nuvoloso 24 13 50 1022 10 O 9.3
Oggi h: 14:20 poco_nuvoloso Poco Nuvoloso 23 11 46 1022 10 O 9.3
Oggi h: 13:50 sereno Sereno 23 11 46 1022 10 SO 13
Oggi h: 13:20 sereno Sereno 23 12 49 1022 10 O 11.1
Oggi h: 12:50 sereno Sereno 22 12 53 1023 10 O/SO 13
Oggi h: 12:20 sereno Sereno 22 13 56 1023 10 O 11.1
Oggi h: 11:50 sereno Sereno 21 14 64 1023 10 SO 14.8
Oggi h: 11:20 sereno Sereno 21 13 60 1023 10 O/SO 9.3
Oggi h: 10:50 sereno Sereno 20 13 64 1023 10 SO 11.1
Oggi h: 10:20 sereno Sereno 20 13 64 1023 10 N 3.7
Oggi h: 09:50 sereno Sereno 19 14 72 1023 10 N 1.8
Oggi h: 09:20 sereno Sereno 18 13 72 1023 10 N 0
Oggi h: 08:50 sereno Sereno 16 13 82 1023 10 N 3.7
Oggi h: 08:20 sereno Sereno 14 12 87 1022 10 NE 7.4
Oggi h: 07:50 sereno Sereno 12 11 93 1022 10 N 5.5
Oggi h: 07:20 sereno Sereno 11 10 93 1022 10 N 3.7
Oggi h: 06:50 sereno Sereno 11 10 93 1022 10 N 3.7
Oggi h: 06:20 sereno Sereno 11 10 93 1022 10 N 3.7
Oggi h: 05:50 sereno Sereno 11 10 93 1022 10 N 0
Oggi h: 05:20 sereno Sereno 11 10 93 1022 10 N 0
Oggi h: 04:50 sereno Sereno 12 11 93 1022 10 N 3.7
Oggi h: 04:20 sereno Sereno 11 11 100 1022 10 N 3.7
Oggi h: 03:50 sereno Sereno 12 11 93 1022 10 N 5.5
Oggi h: 03:20 sereno Sereno 12 11 93 1022 10 N 3.7
Oggi h: 02:50 sereno Sereno 12 11 93 1022 10 N 3.7
Oggi h: 02:20 poco_nuvoloso Poco Nuvoloso 13 12 93 1022 10 N 5.5
Oggi h: 01:50 poco_nuvoloso Poco Nuvoloso 14 12 87 1022 10 N 0
Oggi h: 01:20 molto_nuvoloso Molto Nuvoloso 15 12 82 1022 10 N 1.8
Oggi h: 00:50 molto_nuvoloso Molto Nuvoloso 15 12 82 1022 10 N 0
Oggi h: 00:20 molto_nuvoloso Molto Nuvoloso 14 12 87 1022 10 N 1.8
Ieri h: 23:50 nuvoloso Nuvoloso 15 11 76 1022 10 N 3.7
Ieri h: 23:20 poco_nuvoloso Poco Nuvoloso 16 11 72 1022 10 N 0
Ieri h: 22:50 molto_nuvoloso Molto Nuvoloso 18 11 63 1022 10 N 1.8
Ieri h: 22:20 coperto Coperto 18 12 67 1021 10 N 0
Ieri h: 21:50 sereno Sereno 19 11 59 1021 10 N 3.7